Time,TemperatureF,DewpointF,PressureIn,WindDirection,WindDirectionDegrees,WindSpeedMPH,WindSpeedGustMPH,Humidity,HourlyPrecipIn,Conditions,Clouds,dailyrainin,SolarRadiationWatts/m^2,SoftwareType,DateUTC
2013-08-16 00:00:00,73.0,46.4,29.78,NNE,21,0.0,-999.0,26,-99.99,,,0.00,0.0,cwc,2013-08-16 06:00:00,
2013-08-16 00:05:00,72.8,46.9,29.78,NNE,21,0.0,-999.0,28,-99.99,,,0.00,0.0,cwc,2013-08-16 06:05:00,
2013-08-16 00:15:00,72.4,46.8,29.79,NNE,21,0.0,-999.0,29,-99.99,,,0.00,0.0,cwc,2013-08-16 06:15:00,
2013-08-16 00:25:00,71.5,45.9,29.78,NNE,19,4.0,-999.0,29,-99.99,,,0.00,0.0,cwc,2013-08-16 06:25:00,
2013-08-16 00:30:00,71.3,45.7,29.78,NNE,19,1.0,-999.0,29,-99.99,,,0.00,0.0,cwc,2013-08-16 06:30:00,
2013-08-16 00:40:00,71.0,45.4,29.78,NNE,22,1.0,-999.0,29,-99.99,,,0.00,0.0,cwc,2013-08-16 06:40:00,
2013-08-16 00:45:00,70.8,45.6,29.78,NNE,23,0.0,-999.0,30,-99.99,,,0.00,0.0,cwc,2013-08-16 06:45:00,
2013-08-16 00:50:00,70.5,45.7,29.78,NNE,23,0.0,-999.0,31,-99.99,,,0.00,0.0,cwc,2013-08-16 06:50:00,
2013-08-16 00:55:00,70.2,45.4,29.78,NNE,23,1.0,-999.0,31,-99.99,,,0.00,0.0,cwc,2013-08-16 06:55:00,
2013-08-16 01:00:00,69.9,44.7,29.78,NNE,22,2.0,-999.0,30,-99.99,,,0.00,0.0,cwc,2013-08-16 07:00:00,
2013-08-16 01:05:00,69.9,44.7,29.79,NNE,23,0.0,-999.0,30,-99.99,,,0.00,0.0,cwc,2013-08-16 07:05:00,
2013-08-16 01:10:00,69.9,44.7,29.79,NNE,23,0.0,-999.0,30,-99.99,,,0.00,0.0,cwc,2013-08-16 07:10:00,
2013-08-16 01:15:00,70.1,44.9,29.79,NNE,23,1.0,-999.0,30,-99.99,,,0.00,0.0,cwc,2013-08-16 07:15:00,
2013-08-16 01:20:00,70.4,45.2,29.79,NNE,22,0.0,-999.0,30,-99.99,,,0.00,0.0,cwc,2013-08-16 07:20:00,
2013-08-16 01:25:00,70.5,45.3,29.79,NNE,23,0.0,-999.0,30,-99.99,,,0.00,0.0,cwc,2013-08-16 07:25:00,
2013-08-16 01:30:00,70.4,45.2,29.79,NNE,23,3.0,-999.0,30,-99.99,,,0.00,0.0,cwc,2013-08-16 07:30:00,
2013-08-16 01:35:00,69.9,44.7,29.79,NNE,22,3.0,-999.0,30,-99.99,,,0.00,0.0,cwc,2013-08-16 07:35:00,
2013-08-16 01:40:00,69.5,44.7,29.79,NNE,25,4.0,-999.0,31,-99.99,,,0.00,0.0,cwc,2013-08-16 07:40:00,
2013-08-16 01:45:00,69.0,44.2,29.78,NNE,26,4.0,-999.0,31,-99.99,,,0.00,0.0,cwc,2013-08-16 07:45:00,
2013-08-16 01:50:00,69.1,43.9,29.78,NNE,25,3.0,-999.0,30,-99.99,,,0.00,0.0,cwc,2013-08-16 07:50:00,
2013-08-16 01:55:00,69.1,44.6,29.78,NNE,25,1.0,-999.0,32,-99.99,,,0.00,0.0,cwc,2013-08-16 07:55:00,
2013-08-16 02:00:00,68.9,44.4,29.78,NNE,25,0.0,-999.0,32,-99.99,,,0.00,0.0,cwc,2013-08-16 08:00:00,
2013-08-16 02:05:00,68.9,44.4,29.78,NNE,25,0.0,-999.0,32,-99.99,,,0.00,0.0,cwc,2013-08-16 08:05:00,
2013-08-16 02:10:00,68.8,44.0,29.78,NNE,25,0.0,-999.0,31,-99.99,,,0.00,0.0,cwc,2013-08-16 08:10:00,
2013-08-16 02:20:00,68.8,44.7,29.78,NNE,25,2.0,-999.0,33,-99.99,,,0.00,0.0,cwc,2013-08-16 08:20:00,
2013-08-16 02:30:00,67.9,44.1,29.79,NNE,26,2.0,-999.0,34,-99.99,,,0.00,0.0,cwc,2013-08-16 08:30:00,
2013-08-16 02:40:00,67.0,42.9,29.79,NNE,26,2.0,-999.0,33,-99.99,,,0.00,0.0,cwc,2013-08-16 08:40:00,
2013-08-16 02:50:00,66.8,43.0,29.79,NNE,25,3.0,-999.0,34,-99.99,,,0.00,0.0,cwc,2013-08-16 08:50:00,
2013-08-16 03:00:00,66.2,42.1,29.78,NNE,25,4.0,-999.0,33,-99.99,,,0.00,0.0,cwc,2013-08-16 09:00:00,
2013-08-16 03:05:00,66.4,42.6,29.78,NNE,25,1.0,-999.0,34,-99.99,,,0.00,0.0,cwc,2013-08-16 09:05:00,
2013-08-16 03:15:00,66.2,42.4,29.78,NNE,26,0.0,-999.0,34,-99.99,,,0.00,0.0,cwc,2013-08-16 09:15:00,
2013-08-16 03:20:00,66.0,42.2,29.78,NNE,26,3.0,-999.0,34,-99.99,,,0.00,0.0,cwc,2013-08-16 09:20:00,
2013-08-16 03:25:00,66.2,42.4,29.78,NNE,25,2.0,-999.0,34,-99.99,,,0.00,0.0,cwc,2013-08-16 09:25:00,
2013-08-16 03:30:00,66.6,43.2,29.78,NNE,25,3.0,-999.0,35,-99.99,,,0.00,0.0,cwc,2013-08-16 09:30:00,
2013-08-16 03:40:00,66.5,43.8,29.78,NNE,25,0.0,-999.0,37,-99.99,,,0.00,0.0,cwc,2013-08-16 09:40:00,
2013-08-16 03:45:00,66.2,43.2,29.79,North,5,4.0,-999.0,36,-99.99,,,0.00,0.0,cwc,2013-08-16 09:45:00,
2013-08-16 03:50:00,66.6,43.2,29.79,North,360,0.0,-999.0,35,-99.99,,,0.00,0.0,cwc,2013-08-16 09:50:00,
2013-08-16 03:55:00,66.9,44.2,29.79,North,360,0.0,-999.0,37,-99.99,,,0.00,0.0,cwc,2013-08-16 09:55:00,
2013-08-16 04:00:00,66.8,43.8,29.79,North,360,0.0,-999.0,36,-99.99,,,0.00,0.0,cwc,2013-08-16 10:00:00,
2013-08-16 04:05:00,66.4,43.4,29.79,North,360,0.0,-999.0,36,-99.99,,,0.00,0.0,cwc,2013-08-16 10:05:00,
2013-08-16 04:10:00,66.1,43.1,29.79,North,360,2.0,-999.0,36,-99.99,,,0.00,0.0,cwc,2013-08-16 10:10:00,
2013-08-16 04:15:00,66.1,43.1,29.79,North,360,0.0,-999.0,36,-99.99,,,0.00,0.0,cwc,2013-08-16 10:15:00,
2013-08-16 04:20:00,65.9,43.2,29.79,North,360,2.0,-999.0,37,-99.99,,,0.00,0.0,cwc,2013-08-16 10:20:00,
2013-08-16 04:25:00,64.9,42.2,29.78,North,355,4.0,-999.0,37,-99.99,,,0.00,0.0,cwc,2013-08-16 10:25:00,
2013-08-16 04:35:00,63.9,41.6,29.78,NNW,329,5.0,-999.0,38,-99.99,,,0.00,0.0,cwc,2013-08-16 10:35:00,
2013-08-16 04:40:00,63.6,41.6,29.78,NNW,328,0.0,-999.0,39,-99.99,,,0.00,0.0,cwc,2013-08-16 10:40:00,
2013-08-16 04:45:00,63.4,41.8,29.78,NNW,328,0.0,-999.0,40,-99.99,,,0.00,0.0,cwc,2013-08-16 10:45:00,
2013-08-16 04:50:00,63.2,41.2,29.78,NNW,328,0.0,-999.0,39,-99.99,,,0.00,0.0,cwc,2013-08-16 10:50:00,
2013-08-16 04:55:00,63.1,41.5,29.78,NNW,328,1.0,-999.0,40,-99.99,,,0.00,0.0,cwc,2013-08-16 10:55:00,
2013-08-16 05:00:00,63.2,41.6,29.78,NNW,327,1.0,-999.0,40,-99.99,,,0.00,0.0,cwc,2013-08-16 11:00:00,
2013-08-16 05:10:00,63.1,41.1,29.79,NNW,328,2.0,-999.0,39,-99.99,,,0.00,0.0,cwc,2013-08-16 11:10:00,
2013-08-16 05:15:00,62.5,41.3,29.79,NNW,328,0.0,-999.0,41,-99.99,,,0.00,0.0,cwc,2013-08-16 11:15:00,
2013-08-16 05:20:00,62.2,41.0,29.79,NNW,328,3.0,-999.0,41,-99.99,,,0.00,0.0,cwc,2013-08-16 11:20:00,
2013-08-16 05:25:00,62.1,40.9,29.79,NNW,328,1.0,-999.0,41,-99.99,,,0.00,0.0,cwc,2013-08-16 11:25:00,
2013-08-16 05:30:00,61.9,41.0,29.80,NNW,328,2.0,-999.0,42,-99.99,,,0.00,0.0,cwc,2013-08-16 11:30:00,
2013-08-16 05:35:00,61.3,40.8,29.80,NNW,327,3.0,-999.0,43,-99.99,,,0.00,0.0,cwc,2013-08-16 11:35:00,
2013-08-16 05:40:00,60.6,40.1,29.80,NNW,327,3.0,-999.0,43,-99.99,,,0.00,0.0,cwc,2013-08-16 11:40:00,
2013-08-16 05:45:00,60.4,40.6,29.80,NNW,328,0.0,-999.0,45,-99.99,,,0.00,0.0,cwc,2013-08-16 11:45:00,
2013-08-16 05:50:00,60.2,40.4,29.80,NNW,328,0.0,-999.0,45,-99.99,,,0.00,0.0,cwc,2013-08-16 11:50:00,
2013-08-16 05:55:00,60.0,40.2,29.80,NNW,327,2.0,-999.0,45,-99.99,,,0.00,0.0,cwc,2013-08-16 11:55:00,
2013-08-16 06:00:00,59.8,40.0,29.80,NNW,328,0.0,-999.0,45,-99.99,,,0.00,0.0,cwc,2013-08-16 12:00:00,
2013-08-16 06:05:00,59.7,40.3,29.81,NNW,328,0.0,-999.0,46,-99.99,,,0.00,0.0,cwc,2013-08-16 12:05:00,
2013-08-16 06:15:00,59.0,39.6,29.81,NNW,327,2.0,-999.0,46,-99.99,,,0.00,0.0,cwc,2013-08-16 12:15:00,
2013-08-16 06:25:00,58.4,40.0,29.81,NNW,328,0.0,-999.0,49,-99.99,,,0.00,0.0,cwc,2013-08-16 12:25:00,
2013-08-16 06:30:00,58.0,39.3,29.82,NNW,328,0.0,-999.0,48,-99.99,,,0.00,7.0,cwc,2013-08-16 12:30:00,
2013-08-16 06:35:00,57.7,39.3,29.82,NNW,327,0.0,-999.0,49,-99.99,,,0.00,11.0,cwc,2013-08-16 12:35:00,
2013-08-16 06:40:00,57.5,39.1,29.82,NNW,328,1.0,-999.0,49,-99.99,,,0.00,14.0,cwc,2013-08-16 12:40:00,
2013-08-16 06:45:00,57.2,39.2,29.83,NNW,328,0.0,-999.0,50,-99.99,,,0.00,18.0,cwc,2013-08-16 12:45:00,
2013-08-16 06:50:00,56.8,39.2,29.83,NNW,328,0.0,-999.0,51,-99.99,,,0.00,23.0,cwc,2013-08-16 12:50:00,
2013-08-16 06:55:00,56.7,39.1,29.83,NNW,327,2.0,-999.0,51,-99.99,,,0.00,30.0,cwc,2013-08-16 12:55:00,
2013-08-16 07:00:00,57.0,39.4,29.83,NNW,328,1.0,-999.0,51,-99.99,,,0.00,47.0,cwc,2013-08-16 13:00:00,
2013-08-16 07:05:00,57.3,39.7,29.83,NNW,328,2.0,-999.0,51,-99.99,,,0.00,65.0,cwc,2013-08-16 13:05:00,
2013-08-16 07:10:00,57.7,39.7,29.84,NNW,327,0.0,-999.0,50,-99.99,,,0.00,77.0,cwc,2013-08-16 13:10:00,
2013-08-16 07:15:00,58.0,40.0,29.84,NNW,328,2.0,-999.0,50,-99.99,,,0.00,93.0,cwc,2013-08-16 13:15:00,
2013-08-16 07:25:00,59.0,41.0,29.84,NNW,327,0.0,-999.0,50,-99.99,,,0.00,130.0,cwc,2013-08-16 13:25:00,
2013-08-16 07:30:00,59.5,41.1,29.84,NNW,327,1.0,-999.0,49,-99.99,,,0.00,149.0,cwc,2013-08-16 13:30:00,
2013-08-16 07:35:00,60.0,41.6,29.84,NNW,328,0.0,-999.0,49,-99.99,,,0.00,171.0,cwc,2013-08-16 13:35:00,
2013-08-16 07:40:00,60.6,41.9,29.85,NNW,328,0.0,-999.0,48,-99.99,,,0.00,190.0,cwc,2013-08-16 13:40:00,
2013-08-16 07:45:00,61.3,42.6,29.85,NNW,328,0.0,-999.0,48,-99.99,,,0.00,211.0,cwc,2013-08-16 13:45:00,
2013-08-16 07:50:00,62.2,44.6,29.85,NNW,327,0.0,-999.0,51,-99.99,,,0.00,227.0,cwc,2013-08-16 13:50:00,
2013-08-16 07:55:00,62.8,43.7,29.85,NNW,328,0.0,-999.0,47,-99.99,,,0.00,244.0,cwc,2013-08-16 13:55:00,
2013-08-16 08:00:00,63.6,44.2,29.85,NNW,328,0.0,-999.0,46,-99.99,,,0.00,262.0,cwc,2013-08-16 14:00:00,
2013-08-16 08:05:00,64.5,44.3,29.85,NNW,327,0.0,-999.0,44,-99.99,,,0.00,279.0,cwc,2013-08-16 14:05:00,
2013-08-16 08:10:00,65.4,45.2,29.85,NNW,328,0.0,-999.0,44,-99.99,,,0.00,297.0,cwc,2013-08-16 14:10:00,
2013-08-16 08:20:00,66.5,45.3,29.85,NNW,328,1.0,-999.0,41,-99.99,,,0.00,332.0,cwc,2013-08-16 14:20:00,
2013-08-16 08:25:00,67.0,45.8,29.85,NNW,327,2.0,-999.0,41,-99.99,,,0.00,348.0,cwc,2013-08-16 14:25:00,
2013-08-16 08:30:00,67.5,45.9,29.85,NNW,328,0.0,-999.0,40,-99.99,,,0.00,366.0,cwc,2013-08-16 14:30:00,
2013-08-16 08:40:00,68.7,46.4,29.84,NNW,328,0.0,-999.0,38,-99.99,,,0.00,401.0,cwc,2013-08-16 14:40:00,
2013-08-16 08:45:00,69.4,46.7,29.84,NNW,327,2.0,-999.0,37,-99.99,,,0.00,418.0,cwc,2013-08-16 14:45:00,
2013-08-16 08:50:00,70.0,47.7,29.84,NNW,328,1.0,-999.0,38,-99.99,,,0.00,434.0,cwc,2013-08-16 14:50:00,
2013-08-16 08:55:00,70.8,47.4,29.84,NNW,328,0.0,-999.0,35,-99.99,,,0.00,452.0,cwc,2013-08-16 14:55:00,
2013-08-16 09:00:00,71.4,48.4,29.83,NNW,327,0.0,-999.0,36,-99.99,,,0.00,466.0,cwc,2013-08-16 15:00:00,
2013-08-16 09:05:00,72.5,48.7,29.83,NNW,327,0.0,-999.0,34,-99.99,,,0.00,485.0,cwc,2013-08-16 15:05:00,
2013-08-16 09:10:00,73.6,49.8,29.83,NNW,329,1.0,-999.0,34,-99.99,,,0.00,501.0,cwc,2013-08-16 15:10:00,
2013-08-16 09:15:00,74.2,50.1,29.83,NNW,329,0.0,-999.0,33,-99.99,,,0.00,517.0,cwc,2013-08-16 15:15:00,
2013-08-16 09:20:00,74.7,50.2,29.83,NNW,329,3.0,-999.0,32,-99.99,,,0.00,533.0,cwc,2013-08-16 15:20:00,
2013-08-16 09:25:00,75.1,50.3,29.83,NNW,329,2.0,-999.0,31,-99.99,,,0.00,550.0,cwc,2013-08-16 15:25:00,
2013-08-16 09:30:00,75.4,51.3,29.82,NNW,329,0.0,-999.0,33,-99.99,,,0.00,563.0,cwc,2013-08-16 15:30:00,
2013-08-16 09:35:00,76.2,51.4,29.82,NNW,329,0.0,-999.0,31,-99.99,,,0.00,578.0,cwc,2013-08-16 15:35:00,
2013-08-16 09:40:00,77.3,52.1,29.82,NNW,329,2.0,-999.0,30,-99.99,,,0.00,596.0,cwc,2013-08-16 15:40:00,
2013-08-16 09:45:00,77.9,52.3,29.82,NNW,329,3.0,-999.0,29,-99.99,,,0.00,610.0,cwc,2013-08-16 15:45:00,
2013-08-16 09:50:00,78.3,53.1,29.82,NNW,329,0.0,-999.0,30,-99.99,,,0.00,626.0,cwc,2013-08-16 15:50:00,
2013-08-16 09:55:00,78.3,53.1,29.82,NNW,329,0.0,-999.0,30,-99.99,,,0.00,640.0,cwc,2013-08-16 15:55:00,
2013-08-16 10:00:00,78.7,53.1,29.82,NNW,329,0.0,-999.0,29,-99.99,,,0.00,652.0,cwc,2013-08-16 16:00:00,
2013-08-16 10:05:00,79.1,53.5,29.81,NNW,331,0.0,-999.0,29,-99.99,,,0.00,663.0,cwc,2013-08-16 16:05:00,
2013-08-16 10:10:00,79.3,54.1,29.81,NNW,333,3.0,-999.0,30,-99.99,,,0.00,675.0,cwc,2013-08-16 16:10:00,
2013-08-16 10:15:00,80.0,54.8,29.81,NNW,333,0.0,-999.0,30,-99.99,,,0.00,693.0,cwc,2013-08-16 16:15:00,
2013-08-16 10:20:00,80.8,55.2,29.81,NNW,333,0.0,-999.0,29,-99.99,,,0.00,707.0,cwc,2013-08-16 16:20:00,
2013-08-16 10:25:00,81.6,56.0,29.81,NNW,333,0.0,-999.0,29,-99.99,,,0.00,721.0,cwc,2013-08-16 16:25:00,
2013-08-16 10:35:00,83.0,56.7,29.80,NNW,333,2.0,-999.0,27,-99.99,,,0.00,747.0,cwc,2013-08-16 16:35:00,
2013-08-16 10:40:00,83.2,56.9,29.80,North,349,0.0,-999.0,27,-99.99,,,0.00,758.0,cwc,2013-08-16 16:40:00,
2013-08-16 10:45:00,83.3,57.0,29.80,East,86,3.0,-999.0,27,-99.99,,,0.00,770.0,cwc,2013-08-16 16:45:00,
2013-08-16 10:50:00,83.6,57.3,29.80,ENE,74,3.0,-999.0,27,-99.99,,,0.00,777.0,cwc,2013-08-16 16:50:00,
2013-08-16 10:55:00,83.7,57.8,29.80,ENE,60,3.0,-999.0,28,-99.99,,,0.00,789.0,cwc,2013-08-16 16:55:00,
2013-08-16 11:00:00,83.9,57.6,29.79,ENE,61,2.0,-999.0,27,-99.99,,,0.00,798.0,cwc,2013-08-16 17:00:00,
2013-08-16 11:10:00,84.2,57.6,29.79,ENE,61,0.0,-999.0,26,-99.99,,,0.00,819.0,cwc,2013-08-16 17:10:00,
2013-08-16 11:15:00,84.7,57.7,29.78,ENE,60,0.0,-999.0,25,-99.99,,,0.00,830.0,cwc,2013-08-16 17:15:00,
2013-08-16 11:20:00,85.2,58.2,29.78,ENE,61,1.0,-999.0,25,-99.99,,,0.00,838.0,cwc,2013-08-16 17:20:00,
2013-08-16 11:25:00,85.7,58.7,29.78,ENE,61,0.0,-999.0,25,-99.99,,,0.00,849.0,cwc,2013-08-16 17:25:00,
2013-08-16 11:30:00,86.0,58.6,29.78,ENE,64,4.0,-999.0,24,-99.99,,,0.00,854.0,cwc,2013-08-16 17:30:00,
2013-08-16 11:40:00,86.9,59.5,29.77,ENE,66,0.0,-999.0,24,-99.99,,,0.00,879.0,cwc,2013-08-16 17:40:00,
2013-08-16 11:45:00,86.8,59.1,29.77,ENE,67,0.0,-999.0,23,-99.99,,,0.00,888.0,cwc,2013-08-16 17:45:00,
2013-08-16 11:50:00,87.1,59.4,29.77,ENE,60,2.0,-999.0,23,-99.99,,,0.00,889.0,cwc,2013-08-16 17:50:00,
2013-08-16 12:00:00,86.9,59.2,29.76,ENE,76,4.0,-999.0,23,-99.99,,,0.00,904.0,cwc,2013-08-16 18:00:00,
2013-08-16 12:15:00,86.9,59.2,29.75,East,80,0.0,-999.0,23,-99.99,,,0.00,918.0,cwc,2013-08-16 18:15:00,
2013-08-16 12:25:00,88.2,59.8,29.75,East,80,1.0,-999.0,21,-99.99,,,0.00,928.0,cwc,2013-08-16 18:25:00,
2013-08-16 12:30:00,88.3,59.9,29.75,East,80,0.0,-999.0,21,-99.99,,,0.00,925.0,cwc,2013-08-16 18:30:00,
2013-08-16 12:35:00,88.7,59.9,29.74,East,84,3.0,-999.0,20,-99.99,,,0.00,930.0,cwc,2013-08-16 18:35:00,
2013-08-16 12:40:00,88.9,59.7,29.74,NNW,329,6.0,-999.0,19,-99.99,,,0.00,930.0,cwc,2013-08-16 18:40:00,
2013-08-16 12:45:00,88.8,58.9,29.74,WSW,237,3.0,-999.0,17,-99.99,,,0.00,940.0,cwc,2013-08-16 18:45:00,
2013-08-16 12:55:00,88.7,59.2,29.74,SE,138,2.0,-999.0,18,-99.99,,,0.00,960.0,cwc,2013-08-16 18:55:00,
2013-08-16 13:00:00,88.9,59.7,29.73,SE,137,0.0,-999.0,19,-99.99,,,0.00,988.0,cwc,2013-08-16 19:00:00,
2013-08-16 13:05:00,89.7,60.5,29.73,SE,126,5.0,-999.0,19,-99.99,,,0.00,1035.0,cwc,2013-08-16 19:05:00,
2013-08-16 13:10:00,90.2,60.7,29.73,SW,225,7.0,-999.0,18,-99.99,,,0.00,1063.0,cwc,2013-08-16 19:10:00,
2013-08-16 13:15:00,90.1,60.2,29.73,SW,229,5.0,-999.0,17,-99.99,,,0.00,817.0,cwc,2013-08-16 19:15:00,
2013-08-16 13:20:00,89.8,59.9,29.73,SSW,213,3.0,-999.0,17,-99.99,,,0.00,953.0,cwc,2013-08-16 19:20:00,
2013-08-16 13:30:00,90.5,61.0,29.72,NNW,327,5.0,-999.0,18,-99.99,,,0.00,932.0,cwc,2013-08-16 19:30:00,
2013-08-16 13:40:00,90.2,60.3,29.72,SSW,207,4.0,-999.0,17,-99.99,,,0.00,810.0,cwc,2013-08-16 19:40:00,
2013-08-16 13:45:00,89.9,60.0,29.72,SW,219,1.0,-999.0,17,-99.99,,,0.00,777.0,cwc,2013-08-16 19:45:00,
2013-08-16 13:50:00,90.1,60.6,29.73,ESE,122,4.0,-999.0,18,-99.99,,,0.00,522.0,cwc,2013-08-16 19:50:00,
2013-08-16 13:55:00,89.4,59.9,29.72,NNE,24,7.0,-999.0,18,-99.99,,,0.00,473.0,cwc,2013-08-16 19:55:00,
2013-08-16 14:00:00,88.1,58.9,29.72,NNE,29,9.0,-999.0,19,-99.99,,,0.00,939.0,cwc,2013-08-16 20:00:00,
2013-08-16 14:05:00,87.5,58.7,29.72,NNW,327,4.0,-999.0,20,-99.99,,,0.00,923.0,cwc,2013-08-16 20:05:00,
2013-08-16 14:10:00,87.7,58.5,29.71,ENE,60,5.0,-999.0,19,-99.99,,,0.00,916.0,cwc,2013-08-16 20:10:00,
2013-08-16 14:15:00,87.8,58.6,29.71,NE,48,8.0,-999.0,19,-99.99,,,0.00,911.0,cwc,2013-08-16 20:15:00,
2013-08-16 14:25:00,88.2,59.0,29.70,NNE,13,6.0,-999.0,19,-99.99,,,0.00,893.0,cwc,2013-08-16 20:25:00,
2013-08-16 14:30:00,88.6,59.1,29.71,ENE,57,8.0,-999.0,18,-99.99,,,0.00,881.0,cwc,2013-08-16 20:30:00,
2013-08-16 14:40:00,89.6,59.7,29.71,North,355,0.0,-999.0,17,-99.99,,,0.00,872.0,cwc,2013-08-16 20:40:00,
2013-08-16 14:45:00,90.3,60.4,29.71,WNW,295,1.0,-999.0,17,-99.99,,,0.00,863.0,cwc,2013-08-16 20:45:00,
2013-08-16 14:50:00,90.6,60.7,29.70,NE,44,9.0,-999.0,17,-99.99,,,0.00,856.0,cwc,2013-08-16 20:50:00,
2013-08-16 14:55:00,90.5,60.6,29.70,NE,34,3.0,-999.0,17,-99.99,,,0.00,844.0,cwc,2013-08-16 20:55:00,
2013-08-16 15:00:00,90.9,60.7,29.70,ESE,113,3.0,-999.0,16,-99.99,,,0.00,835.0,cwc,2013-08-16 21:00:00,
2013-08-16 15:10:00,91.7,61.1,29.69,SW,221,6.0,-999.0,15,-99.99,,,0.00,821.0,cwc,2013-08-16 21:10:00,
2013-08-16 15:20:00,92.1,61.1,29.69,SSW,205,3.0,-999.0,14,-99.99,,,0.00,796.0,cwc,2013-08-16 21:20:00,
2013-08-16 15:30:00,92.1,61.1,29.68,NE,54,7.0,-999.0,14,-99.99,,,0.00,772.0,cwc,2013-08-16 21:30:00,
2013-08-16 15:40:00,91.8,60.8,29.68,SW,220,1.0,-999.0,14,-99.99,,,0.00,756.0,cwc,2013-08-16 21:40:00,
2013-08-16 15:45:00,92.2,60.9,29.68,SSW,213,2.0,-999.0,13,-99.99,,,0.00,728.0,cwc,2013-08-16 21:45:00,
2013-08-16 15:50:00,92.5,61.5,29.68,SSW,202,10.0,-999.0,14,-99.99,,,0.00,710.0,cwc,2013-08-16 21:50:00,
2013-08-16 15:55:00,92.5,61.5,29.68,SSW,206,13.0,-999.0,14,-99.99,,,0.00,710.0,cwc,2013-08-16 21:55:00,
2013-08-16 16:00:00,92.0,60.7,29.68,South,188,3.0,-999.0,13,-99.99,,,0.00,694.0,cwc,2013-08-16 22:00:00,
2013-08-16 16:10:00,91.8,60.5,29.67,SSW,196,0.0,-999.0,13,-99.99,,,0.00,663.0,cwc,2013-08-16 22:10:00,
2013-08-16 16:15:00,92.4,61.1,29.67,SSW,200,6.0,-999.0,13,-99.99,,,0.00,591.0,cwc,2013-08-16 22:15:00,
2013-08-16 16:25:00,92.9,61.6,29.67,SSW,209,5.0,-999.0,13,-99.99,,,0.00,633.0,cwc,2013-08-16 22:25:00,
2013-08-16 16:35:00,92.3,60.6,29.67,SSW,197,0.0,-999.0,12,-99.99,,,0.00,599.0,cwc,2013-08-16 22:35:00,
2013-08-16 16:40:00,92.0,60.3,29.66,ESE,112,0.0,-999.0,12,-99.99,,,0.00,584.0,cwc,2013-08-16 22:40:00,
2013-08-16 16:45:00,92.4,61.1,29.66,SSW,203,7.0,-999.0,13,-99.99,,,0.00,566.0,cwc,2013-08-16 22:45:00,
2013-08-16 16:55:00,92.4,60.7,29.66,SW,220,4.0,-999.0,12,-99.99,,,0.00,541.0,cwc,2013-08-16 22:55:00,
2013-08-16 17:00:00,92.3,60.6,29.66,SE,144,3.0,-999.0,12,-99.99,,,0.00,527.0,cwc,2013-08-16 23:00:00,
2013-08-16 17:05:00,92.5,60.8,29.66,SW,230,2.0,-999.0,12,-99.99,,,0.00,513.0,cwc,2013-08-16 23:05:00,
2013-08-16 17:10:00,92.3,61.0,29.65,South,169,4.0,-999.0,13,-99.99,,,0.00,497.0,cwc,2013-08-16 23:10:00,
2013-08-16 17:15:00,92.8,61.5,29.66,SSW,208,6.0,-999.0,13,-99.99,,,0.00,480.0,cwc,2013-08-16 23:15:00,
2013-08-16 17:20:00,92.9,61.2,29.65,SW,227,3.0,-999.0,12,-99.99,,,0.00,461.0,cwc,2013-08-16 23:20:00,
2013-08-16 17:25:00,92.7,61.0,29.65,WSW,255,0.0,-999.0,12,-99.99,,,0.00,441.0,cwc,2013-08-16 23:25:00,
2013-08-16 17:30:00,92.6,60.9,29.65,WSW,254,0.0,-999.0,12,-99.99,,,0.00,425.0,cwc,2013-08-16 23:30:00,
2013-08-16 17:40:00,92.9,61.6,29.65,ENE,75,2.0,-999.0,13,-99.99,,,0.00,396.0,cwc,2013-08-16 23:40:00,
2013-08-16 17:45:00,92.7,61.0,29.65,North,360,1.0,-999.0,12,-99.99,,,0.00,380.0,cwc,2013-08-16 23:45:00,
2013-08-16 17:50:00,92.1,60.4,29.65,NNW,344,3.0,-999.0,12,-99.99,,,0.00,360.0,cwc,2013-08-16 23:50:00,
2013-08-16 17:55:00,91.7,60.0,29.65,NW,325,2.0,-999.0,12,-99.99,,,0.00,346.0,cwc,2013-08-16 23:55:00,
2013-08-16 18:00:00,91.7,60.0,29.65,NW,324,2.0,-999.0,12,-99.99,,,0.00,336.0,cwc,2013-08-17 00:00:00,
2013-08-16 18:05:00,91.7,60.4,29.65,NNW,329,0.0,-999.0,13,-99.99,,,0.00,320.0,cwc,2013-08-17 00:05:00,
2013-08-16 18:10:00,91.8,60.8,29.64,NNW,329,1.0,-999.0,14,-99.99,,,0.00,304.0,cwc,2013-08-17 00:10:00,
2013-08-16 18:15:00,91.6,60.6,29.64,NNW,329,1.0,-999.0,14,-99.99,,,0.00,88.0,cwc,2013-08-17 00:15:00,
2013-08-16 18:20:00,91.2,60.6,29.64,NNW,336,0.0,-999.0,15,-99.99,,,0.00,91.0,cwc,2013-08-17 00:20:00,
2013-08-16 18:25:00,90.8,60.2,29.64,NNW,344,3.0,-999.0,15,-99.99,,,0.00,102.0,cwc,2013-08-17 00:25:00,
2013-08-16 18:30:00,90.2,59.6,29.64,NNW,348,1.0,-999.0,15,-99.99,,,0.00,111.0,cwc,2013-08-17 00:30:00,
2013-08-16 18:40:00,89.5,58.9,29.65,NW,321,0.0,-999.0,15,-99.99,,,0.00,109.0,cwc,2013-08-17 00:40:00,
2013-08-16 18:50:00,89.5,58.9,29.65,NW,321,0.0,-999.0,15,-99.99,,,0.00,83.0,cwc,2013-08-17 00:50:00,
2013-08-16 18:55:00,89.3,59.1,29.64,NW,321,1.0,-999.0,16,-99.99,,,0.00,77.0,cwc,2013-08-17 00:55:00,
2013-08-16 19:00:00,89.1,58.9,29.64,NNW,329,4.0,-999.0,16,-99.99,,,0.00,69.0,cwc,2013-08-17 01:00:00,
2013-08-16 19:05:00,88.8,58.9,29.65,NNE,33,1.0,-999.0,17,-99.99,,,0.00,65.0,cwc,2013-08-17 01:05:00,
2013-08-16 19:15:00,88.2,58.0,29.65,NNE,25,4.0,-999.0,16,-99.99,,,0.00,58.0,cwc,2013-08-17 01:15:00,
2013-08-16 19:20:00,87.9,57.7,29.65,NNE,25,3.0,-999.0,16,-99.99,,,0.00,56.0,cwc,2013-08-17 01:20:00,
2013-08-16 19:25:00,87.7,57.5,29.65,NNE,26,0.0,-999.0,16,-99.99,,,0.00,47.0,cwc,2013-08-17 01:25:00,
2013-08-16 19:30:00,87.5,57.3,29.65,NNE,26,1.0,-999.0,16,-99.99,,,0.00,39.0,cwc,2013-08-17 01:30:00,
2013-08-16 19:35:00,87.3,56.7,29.65,NNE,18,6.0,-999.0,15,-99.99,,,0.00,25.0,cwc,2013-08-17 01:35:00,
2013-08-16 19:45:00,87.1,56.9,29.66,NNE,19,0.0,-999.0,16,-99.99,,,0.00,9.0,cwc,2013-08-17 01:45:00,
2013-08-16 19:55:00,86.4,56.2,29.66,NNE,18,0.0,-999.0,16,-99.99,,,0.00,0.0,cwc,2013-08-17 01:55:00,
2013-08-16 20:00:00,85.9,56.4,29.66,NNE,19,0.0,-999.0,18,-99.99,,,0.00,0.0,cwc,2013-08-17 02:00:00,
2013-08-16 20:05:00,85.4,56.2,29.66,NNE,19,0.0,-999.0,19,-99.99,,,0.00,0.0,cwc,2013-08-17 02:05:00,
2013-08-16 20:10:00,84.9,56.1,29.66,NNE,20,0.0,-999.0,20,-99.99,,,0.00,0.0,cwc,2013-08-17 02:10:00,
2013-08-16 20:15:00,84.4,56.0,29.66,NNE,19,0.0,-999.0,21,-99.99,,,0.00,0.0,cwc,2013-08-17 02:15:00,
2013-08-16 20:20:00,84.0,55.6,29.66,NNE,20,0.0,-999.0,21,-99.99,,,0.00,0.0,cwc,2013-08-17 02:20:00,
2013-08-16 20:25:00,83.6,55.2,29.67,NNE,20,0.0,-999.0,21,-99.99,,,0.00,0.0,cwc,2013-08-17 02:25:00,
2013-08-16 20:35:00,82.8,55.1,29.67,ENE,74,0.0,-999.0,23,-99.99,,,0.00,0.0,cwc,2013-08-17 02:35:00,
2013-08-16 20:40:00,82.5,54.8,29.68,SE,138,1.0,-999.0,23,-99.99,,,0.00,0.0,cwc,2013-08-17 02:40:00,
2013-08-16 20:50:00,82.2,54.8,29.69,SSE,163,2.0,-999.0,24,-99.99,,,0.00,0.0,cwc,2013-08-17 02:50:00,
2013-08-16 20:55:00,82.1,54.7,29.70,SE,136,2.0,-999.0,24,-99.99,,,0.00,0.0,cwc,2013-08-17 02:55:00,
2013-08-16 21:00:00,81.9,54.9,29.70,NE,40,5.0,-999.0,25,-99.99,,,0.00,0.0,cwc,2013-08-17 03:00:00,
2013-08-16 21:05:00,81.6,54.6,29.70,ESE,123,3.0,-999.0,25,-99.99,,,0.00,0.0,cwc,2013-08-17 03:05:00,
2013-08-16 21:10:00,81.3,54.7,29.70,East,88,0.0,-999.0,26,-99.99,,,0.00,0.0,cwc,2013-08-17 03:10:00,
2013-08-16 21:15:00,81.0,54.4,29.71,North,355,6.0,-999.0,26,-99.99,,,0.00,0.0,cwc,2013-08-17 03:15:00,
2013-08-16 21:20:00,80.6,54.0,29.72,NNE,31,5.0,-999.0,26,-99.99,,,0.00,0.0,cwc,2013-08-17 03:20:00,
2013-08-16 21:25:00,80.4,53.8,29.73,NE,43,0.0,-999.0,26,-99.99,,,0.00,0.0,cwc,2013-08-17 03:25:00,
2013-08-16 21:30:00,80.2,53.6,29.73,ENE,65,1.0,-999.0,26,-99.99,,,0.00,0.0,cwc,2013-08-17 03:30:00,
2013-08-16 21:35:00,79.9,53.3,29.72,ENE,66,3.0,-999.0,26,-99.99,,,0.00,0.0,cwc,2013-08-17 03:35:00,
2013-08-16 21:40:00,79.6,53.3,29.71,East,97,1.0,-999.0,27,-99.99,,,0.00,0.0,cwc,2013-08-17 03:40:00,
2013-08-16 21:45:00,79.7,52.7,29.72,East,95,3.0,-999.0,25,-99.99,,,0.00,0.0,cwc,2013-08-17 03:45:00,
2013-08-16 21:50:00,79.6,53.3,29.72,North,355,3.0,-999.0,27,-99.99,,,0.00,0.0,cwc,2013-08-17 03:50:00,
2013-08-16 21:55:00,79.4,53.1,29.73,North,360,3.0,-999.0,27,-99.99,,,0.00,0.0,cwc,2013-08-17 03:55:00,
2013-08-16 22:00:00,79.1,52.5,29.73,North,5,5.0,-999.0,26,-99.99,,,0.00,0.0,cwc,2013-08-17 04:00:00,
2013-08-16 22:05:00,78.9,52.3,29.73,North,360,4.0,-999.0,26,-99.99,,,0.00,0.0,cwc,2013-08-17 04:05:00,
2013-08-16 22:10:00,78.9,52.3,29.73,North,5,1.0,-999.0,26,-99.99,,,0.00,0.0,cwc,2013-08-17 04:10:00,
2013-08-16 22:20:00,78.9,52.3,29.74,North,5,0.0,-999.0,26,-99.99,,,0.00,0.0,cwc,2013-08-17 04:20:00,
2013-08-16 22:25:00,78.7,52.1,29.74,North,5,0.0,-999.0,26,-99.99,,,0.00,0.0,cwc,2013-08-17 04:25:00,
2013-08-16 22:30:00,78.3,51.7,29.74,North,5,0.0,-999.0,26,-99.99,,,0.00,0.0,cwc,2013-08-17 04:30:00,
2013-08-16 22:40:00,78.1,51.5,29.75,SSW,196,4.0,-999.0,26,-99.99,,,0.00,0.0,cwc,2013-08-17 04:40:00,
2013-08-16 22:45:00,78.3,51.7,29.75,SW,223,0.0,-999.0,26,-99.99,,,0.00,0.0,cwc,2013-08-17 04:45:00,
2013-08-16 22:50:00,78.2,51.6,29.75,SW,223,0.0,-999.0,26,-99.99,,,0.00,0.0,cwc,2013-08-17 04:50:00,
2013-08-16 22:55:00,78.0,51.4,29.75,SW,223,0.0,-999.0,26,-99.99,,,0.00,0.0,cwc,2013-08-17 04:55:00,
2013-08-16 23:00:00,77.7,51.1,29.76,SW,223,0.0,-999.0,26,-99.99,,,0.00,0.0,cwc,2013-08-17 05:00:00,
2013-08-16 23:10:00,76.5,50.2,29.76,SW,223,0.0,-999.0,27,-99.99,,,0.00,0.0,cwc,2013-08-17 05:10:00,
2013-08-16 23:20:00,75.2,49.3,29.76,SW,223,1.0,-999.0,28,-99.99,,,0.00,0.0,cwc,2013-08-17 05:20:00,
2013-08-16 23:25:00,74.6,49.0,29.76,SW,223,1.0,-999.0,29,-99.99,,,0.00,0.0,cwc,2013-08-17 05:25:00,
2013-08-16 23:30:00,74.1,48.5,29.76,SW,235,0.0,-999.0,29,-99.99,,,0.00,0.0,cwc,2013-08-17 05:30:00,
2013-08-16 23:35:00,73.7,48.5,29.76,SW,234,3.0,-999.0,30,-99.99,,,0.00,0.0,cwc,2013-08-17 05:35:00,
2013-08-16 23:40:00,73.4,48.2,29.76,SW,236,2.0,-999.0,30,-99.99,,,0.00,0.0,cwc,2013-08-17 05:40:00,
2013-08-16 23:45:00,73.2,48.0,29.76,SW,236,1.0,-999.0,30,-99.99,,,0.00,0.0,cwc,2013-08-17 05:45:00,
2013-08-16 23:50:00,73.0,48.2,29.77,SW,236,2.0,-999.0,31,-99.99,,,0.00,0.0,cwc,2013-08-17 05:50:00,
2013-08-16 23:55:00,72.7,47.9,29.77,SW,236,0.0,-999.0,31,-99.99,,,0.00,0.0,cwc,2013-08-17 05:55:00,